Time;durP1;ratioP1;P1;durP2;ratioP2;P2;SDS_P1;SDS_P2;PMS_P1;PMS_P2;Temp;Humidity;BMP_temperature;BMP_pressure;BME280_temperature;BME280_humidity;BME280_pressure;Samples;Min_cycle;Max_cycle;Signal;HPM_P1;HPM_P2
2023/07/23 00:00:17;;;;;;;12.18;7.95;;;14.40;99.90;;;;;;4837132;29;90481;-43
2023/07/23 00:02:43;;;;;;;15.70;8.65;;;14.40;99.90;;;;;;4842379;29;91152;-35
2023/07/23 00:05:09;;;;;;;6.88;6.07;;;14.40;99.90;;;;;;4845880;29;88816;-36
2023/07/23 00:07:35;;;;;;;11.70;8.27;;;14.40;99.90;;;;;;4845523;29;90860;-43
2023/07/23 00:10:01;;;;;;;9.23;8.18;;;14.40;99.90;;;;;;4845551;28;89603;-38
2023/07/23 00:12:26;;;;;;;14.43;9.10;;;14.40;99.90;;;;;;4844614;28;89798;-48
2023/07/23 00:14:52;;;;;;;14.65;8.60;;;14.40;99.90;;;;;;4845904;29;89417;-39
2023/07/23 00:17:18;;;;;;;9.73;8.68;;;14.40;99.90;;;;;;4844249;29;90343;-47
2023/07/23 00:19:43;;;;;;;14.73;7.95;;;14.40;99.90;;;;;;4845995;29;88842;-35
2023/07/23 00:22:09;;;;;;;10.23;8.63;;;14.40;99.90;;;;;;4844532;29;90051;-35
2023/07/23 00:24:36;;;;;;;10.75;8.90;;;14.40;99.90;;;;;;4845226;29;90161;-45
2023/07/23 00:27:02;;;;;;;11.95;8.20;;;14.40;99.90;;;;;;4844765;29;91509;-43
2023/07/23 00:29:27;;;;;;;11.30;8.50;;;14.40;99.90;;;;;;4845322;29;90419;-36
2023/07/23 00:31:54;;;;;;;9.80;7.70;;;14.40;99.90;;;;;;4844999;29;89217;-41
2023/07/23 00:34:20;;;;;;;13.95;9.02;;;14.40;99.90;;;;;;4845011;28;88991;-41
2023/07/23 00:36:46;;;;;;;17.63;9.15;;;14.40;99.90;;;;;;4844974;28;90540;-42
2023/07/23 00:39:11;;;;;;;12.50;8.35;;;14.50;99.90;;;;;;4845236;29;89308;-31
2023/07/23 00:41:37;;;;;;;11.43;8.75;;;14.40;99.90;;;;;;4844473;29;89601;-34
2023/07/23 00:44:03;;;;;;;10.95;9.05;;;14.50;99.90;;;;;;4844881;29;89766;-37
2023/07/23 00:46:29;;;;;;;15.07;8.60;;;14.50;99.90;;;;;;4844398;29;91142;-34
2023/07/23 00:48:55;;;;;;;11.68;8.82;;;14.40;99.90;;;;;;4844408;29;90348;-41
2023/07/23 00:51:21;;;;;;;10.85;8.68;;;14.40;99.90;;;;;;4844298;29;92029;-33
2023/07/23 00:53:48;;;;;;;12.25;7.88;;;14.40;99.90;;;;;;4844987;29;89729;-32
2023/07/23 00:56:14;;;;;;;11.70;8.97;;;14.40;99.90;;;;;;4844340;29;90113;-46
2023/07/23 00:58:40;;;;;;;9.43;8.45;;;14.40;99.90;;;;;;4844545;28;90273;-34
2023/07/23 01:01:08;;;;;;;12.77;9.20;;;14.40;99.90;;;;;;4844548;29;89609;-41
2023/07/23 01:03:34;;;;;;;11.57;9.50;;;14.40;99.90;;;;;;4845027;29;89653;-48
2023/07/23 01:06:03;;;;;;;10.55;8.00;;;14.50;99.90;;;;;;4844186;29;91350;-37
2023/07/23 01:08:30;;;;;;;10.63;8.68;;;14.40;99.90;;;;;;4843474;29;90219;-37
2023/07/23 01:10:56;;;;;;;11.23;8.50;;;14.40;99.90;;;;;;4843571;28;90245;-34
2023/07/23 01:13:22;;;;;;;12.05;8.15;;;14.50;99.90;;;;;;4843250;28;90294;-44
2023/07/23 01:15:49;;;;;;;10.27;8.80;;;14.40;99.90;;;;;;4844013;28;90318;-41
2023/07/23 01:18:16;;;;;;;12.98;8.90;;;14.40;99.90;;;;;;4841637;28;89756;-34
2023/07/23 01:20:42;;;;;;;12.27;8.60;;;14.40;99.90;;;;;;4843352;28;90121;-48
2023/07/23 01:23:08;;;;;;;12.02;9.43;;;14.50;99.90;;;;;;4841617;29;89240;-38
2023/07/23 01:25:33;;;;;;;12.57;9.18;;;14.40;99.90;;;;;;4842422;29;90918;-42
2023/07/23 01:27:59;;;;;;;12.60;9.32;;;14.40;99.90;;;;;;4840935;29;89132;-33
2023/07/23 01:30:24;;;;;;;9.70;8.80;;;14.40;99.90;;;;;;4843904;29;89482;-34
2023/07/23 01:32:51;;;;;;;10.70;7.90;;;14.40;99.90;;;;;;4844755;29;89742;-44
2023/07/23 01:35:18;;;;;;;11.65;8.82;;;14.40;99.90;;;;;;4843377;29;89922;-34
2023/07/23 01:37:47;;;;;;;12.00;8.88;;;14.40;99.90;;;;;;4843625;28;90229;-33
2023/07/23 01:40:13;;;;;;;11.65;8.70;;;14.40;99.90;;;;;;4843650;28;90026;-36
2023/07/23 01:42:39;;;;;;;12.95;9.63;;;14.40;99.90;;;;;;4845035;29;88353;-33
2023/07/23 01:45:06;;;;;;;10.23;8.93;;;14.40;99.90;;;;;;4843372;29;90907;-42
2023/07/23 01:47:31;;;;;;;11.75;8.57;;;14.40;99.90;;;;;;4843904;29;89732;-44
2023/07/23 01:49:57;;;;;;;14.32;10.18;;;14.30;99.90;;;;;;4844048;29;89640;-33
2023/07/23 01:52:23;;;;;;;12.18;10.10;;;14.40;99.90;;;;;;4843260;29;90433;-37
2023/07/23 01:54:49;;;;;;;12.50;9.73;;;14.40;99.90;;;;;;4831452;28;90235;-41
2023/07/23 01:57:14;;;;;;;11.10;9.07;;;14.40;99.90;;;;;;4831990;28;90316;-40
2023/07/23 01:59:40;;;;;;;13.63;10.05;;;14.30;99.90;;;;;;4825029;29;89651;-40
2023/07/23 02:02:09;;;;;;;11.35;8.75;;;14.30;99.90;;;;;;4837090;29;90425;-35
2023/07/23 02:04:35;;;;;;;11.95;7.70;;;14.40;99.90;;;;;;4825247;29;89504;-38
2023/07/23 02:07:01;;;;;;;13.90;8.75;;;14.40;99.90;;;;;;4824316;29;90286;-40
2023/07/23 02:09:27;;;;;;;12.35;9.07;;;14.40;99.90;;;;;;4835098;29;89555;-36
2023/07/23 02:11:52;;;;;;;13.93;9.68;;;14.40;99.90;;;;;;4844050;28;89648;-35
2023/07/23 02:14:18;;;;;;;12.85;8.40;;;14.40;99.90;;;;;;4834287;29;89495;-42
2023/07/23 02:16:44;;;;;;;13.85;7.82;;;14.40;99.90;;;;;;4840787;29;89417;-38
2023/07/23 02:19:09;;;;;;;12.18;8.57;;;14.40;99.90;;;;;;4833945;29;89846;-49
2023/07/23 02:21:35;;;;;;;8.43;7.28;;;14.40;99.90;;;;;;4825241;29;87712;-33
2023/07/23 02:24:01;;;;;;;10.77;8.30;;;14.40;99.90;;;;;;4834349;29;89163;-33
2023/07/23 02:26:26;;;;;;;11.63;9.23;;;14.30;99.90;;;;;;4842891;29;90800;-38
2023/07/23 02:28:52;;;;;;;12.30;9.90;;;14.30;99.90;;;;;;4842959;29;90595;-34
2023/07/23 02:31:17;;;;;;;14.10;8.88;;;14.30;99.90;;;;;;4832591;29;88540;-49
2023/07/23 02:33:43;;;;;;;13.10;9.98;;;14.40;99.90;;;;;;4829876;29;90821;-39
2023/07/23 02:36:09;;;;;;;9.63;8.52;;;14.30;99.90;;;;;;4843010;29;89138;-46
2023/07/23 02:38:35;;;;;;;13.95;9.60;;;14.30;99.90;;;;;;4830721;29;89133;-44
2023/07/23 02:41:01;;;;;;;11.75;9.20;;;14.40;99.90;;;;;;4842342;29;88380;-46
2023/07/23 02:43:27;;;;;;;14.32;10.32;;;14.40;99.90;;;;;;4825925;29;90572;-47
2023/07/23 02:45:53;;;;;;;10.60;8.15;;;14.40;99.90;;;;;;4836033;29;89269;-39
2023/07/23 02:48:18;;;;;;;11.88;10.60;;;14.40;99.90;;;;;;4825152;28;89196;-42
2023/07/23 02:50:44;;;;;;;11.63;9.10;;;14.30;99.90;;;;;;4836885;29;90537;-34
2023/07/23 02:53:09;;;;;;;12.20;9.45;;;14.40;99.90;;;;;;4835729;29;91788;-35
2023/07/23 02:55:36;;;;;;;20.27;9.15;;;14.30;99.90;;;;;;4824016;29;89689;-45
2023/07/23 02:58:03;;;;;;;11.13;9.05;;;14.40;99.90;;;;;;4824525;29;89939;-35
2023/07/23 03:00:30;;;;;;;12.67;8.97;;;14.40;99.90;;;;;;4825308;29;89743;-38
2023/07/23 03:02:56;;;;;;;10.30;8.75;;;14.30;99.90;;;;;;4840627;29;90202;-45
2023/07/23 03:05:24;;;;;;;9.68;8.45;;;14.40;99.90;;;;;;4843143;28;89379;-36
2023/07/23 03:07:53;;;;;;;12.50;9.85;;;14.30;99.90;;;;;;4841782;28;91192;-35
2023/07/23 03:10:18;;;;;;;10.90;9.63;;;14.40;99.90;;;;;;4842780;28;89473;-37
2023/07/23 03:12:44;;;;;;;13.15;10.18;;;14.40;99.90;;;;;;4843091;28;90284;-35
2023/07/23 03:15:10;;;;;;;11.20;9.73;;;14.40;99.90;;;;;;4841784;29;92159;-37
2023/07/23 03:17:35;;;;;;;14.68;9.55;;;14.40;99.90;;;;;;4842682;29;90090;-37
2023/07/23 03:20:03;;;;;;;12.35;10.02;;;14.30;99.90;;;;;;4843403;29;88208;-34
2023/07/23 03:22:29;;;;;;;14.32;10.88;;;14.40;99.90;;;;;;4841346;29;90266;-37
2023/07/23 03:24:54;;;;;;;14.40;9.77;;;14.30;99.90;;;;;;4842580;29;90079;-41
2023/07/23 03:27:20;;;;;;;14.15;11.82;;;14.40;99.90;;;;;;4841449;29;89857;-34
2023/07/23 03:29:46;;;;;;;12.20;10.65;;;14.40;99.90;;;;;;4842625;29;89151;-41
2023/07/23 03:32:11;;;;;;;15.38;11.57;;;14.30;99.90;;;;;;4842197;29;90403;-45
2023/07/23 03:34:37;;;;;;;12.45;10.50;;;14.40;99.90;;;;;;4843767;29;90433;-33
2023/07/23 03:37:03;;;;;;;15.55;11.90;;;14.40;99.90;;;;;;4845524;29;89551;-38
2023/07/23 03:39:28;;;;;;;15.35;12.32;;;14.40;99.90;;;;;;4844675;29;89487;-38
2023/07/23 03:41:54;;;;;;;13.00;11.30;;;14.40;99.90;;;;;;4843462;29;90410;-42
2023/07/23 03:44:19;;;;;;;19.85;12.35;;;14.40;99.90;;;;;;4843753;29;93149;-35
2023/07/23 03:47:14;;;;;;;15.40;11.02;;;14.40;99.90;;;;;;4845327;29;89594;-37
2023/07/23 03:49:41;;;;;;;17.08;10.10;;;14.40;99.90;;;;;;4845234;28;88978;-41
2023/07/23 03:52:07;;;;;;;14.50;11.65;;;14.40;99.90;;;;;;4844886;28;90262;-41
2023/07/23 03:54:34;;;;;;;13.23;10.43;;;14.40;99.90;;;;;;4844103;29;89026;-34
2023/07/23 03:57:00;;;;;;;16.58;12.10;;;14.40;99.90;;;;;;4845092;28;89649;-39
2023/07/23 03:59:34;;;;;;;12.75;10.55;;;14.40;99.90;;;;;;4843625;28;89524;-46
2023/07/23 04:02:00;;;;;;;19.67;10.35;;;14.40;99.90;;;;;;4844888;28;90144;-41
2023/07/23 04:04:26;;;;;;;13.10;9.50;;;14.40;99.90;;;;;;4844768;29;91762;-35
2023/07/23 04:06:51;;;;;;;12.38;10.63;;;14.40;99.90;;;;;;4845264;28;90373;-36
2023/07/23 04:09:18;;;;;;;14.32;10.77;;;14.40;99.90;;;;;;4845228;28;87824;-39
2023/07/23 04:11:44;;;;;;;12.88;11.15;;;14.40;99.90;;;;;;4844796;28;89853;-34
2023/07/23 04:14:10;;;;;;;13.70;10.95;;;14.40;99.90;;;;;;4836749;29;89840;-34
2023/07/23 04:16:35;;;;;;;12.23;11.07;;;14.40;99.90;;;;;;4840013;29;89587;-34
2023/07/23 04:19:01;;;;;;;13.43;11.23;;;14.40;99.90;;;;;;4845193;29;87814;-33
2023/07/23 04:21:26;;;;;;;13.93;10.48;;;14.50;99.90;;;;;;4845399;29;90465;-42
2023/07/23 04:23:55;;;;;;;15.40;11.50;;;14.40;99.90;;;;;;4845052;29;89597;-39
2023/07/23 04:26:21;;;;;;;13.15;11.52;;;14.50;99.90;;;;;;4841684;29;90716;-33
2023/07/23 04:28:49;;;;;;;15.15;11.75;;;14.50;99.90;;;;;;4826794;29;89245;-36
2023/07/23 04:31:14;;;;;;;13.27;11.30;;;14.50;99.90;;;;;;4834294;29;90204;-39
2023/07/23 04:33:40;;;;;;;17.90;11.55;;;14.50;99.90;;;;;;4832204;29;89558;-34
2023/07/23 04:36:10;;;;;;;13.10;11.35;;;14.50;99.90;;;;;;4834435;29;89464;-37
2023/07/23 04:38:36;;;;;;;14.10;11.90;;;14.50;99.90;;;;;;4832285;29;88272;-35
2023/07/23 04:41:02;;;;;;;16.58;10.85;;;14.50;99.90;;;;;;4840765;29;88846;-44
2023/07/23 04:43:27;;;;;;;14.18;11.07;;;14.50;99.90;;;;;;4833343;29;90018;-39
2023/07/23 04:45:53;;;;;;;14.40;12.77;;;14.50;99.90;;;;;;4836232;29;91605;-33
2023/07/23 04:48:19;;;;;;;13.75;11.52;;;14.50;99.90;;;;;;4831492;28;88551;-38
2023/07/23 04:50:44;;;;;;;19.30;13.10;;;14.60;99.90;;;;;;4836518;29;89876;-37
2023/07/23 04:53:10;;;;;;;13.93;11.63;;;14.50;99.90;;;;;;4831538;29;90403;-43
2023/07/23 04:55:36;;;;;;;13.68;11.40;;;14.50;99.90;;;;;;4835888;29;90451;-45
2023/07/23 04:58:02;;;;;;;17.08;11.95;;;14.50;99.90;;;;;;4831372;29;89661;-38
2023/07/23 05:00:28;;;;;;;17.30;12.45;;;14.50;99.90;;;;;;4834836;29;89130;-37
2023/07/23 05:02:54;;;;;;;15.00;11.90;;;14.50;99.90;;;;;;4844540;29;89794;-40
2023/07/23 05:05:20;;;;;;;13.02;11.57;;;14.60;99.90;;;;;;4841969;29;89807;-36
2023/07/23 05:07:46;;;;;;;13.05;11.50;;;14.60;99.90;;;;;;4833209;29;88958;-43
2023/07/23 05:10:11;;;;;;;13.77;12.30;;;14.60;99.90;;;;;;4842954;29;90692;-36
2023/07/23 05:12:39;;;;;;;14.35;12.13;;;14.60;99.90;;;;;;4844494;29;89630;-41
2023/07/23 05:15:14;;;;;;;15.10;12.17;;;14.60;99.90;;;;;;4843517;28;89285;-36
2023/07/23 05:17:40;;;;;;;13.73;11.35;;;14.60;99.90;;;;;;4843611;29;89013;-34
2023/07/23 05:20:07;;;;;;;14.30;12.25;;;14.60;99.90;;;;;;4841836;28;90389;-36
2023/07/23 05:22:35;;;;;;;15.20;13.07;;;14.70;99.90;;;;;;4841339;29;89534;-36
2023/07/23 05:25:03;;;;;;;15.50;11.27;;;14.70;99.90;;;;;;4843350;28;89692;-40
2023/07/23 05:27:28;;;;;;;13.02;11.63;;;14.70;99.90;;;;;;4842960;29;88197;-35
2023/07/23 05:29:54;;;;;;;13.15;11.50;;;14.70;99.90;;;;;;4842129;29;90377;-38
2023/07/23 05:32:20;;;;;;;13.90;11.90;;;14.70;99.90;;;;;;4844303;29;89910;-34
2023/07/23 05:34:45;;;;;;;12.63;11.05;;;14.70;99.90;;;;;;4830993;29;89632;-34
2023/07/23 05:37:11;;;;;;;14.90;11.88;;;14.70;99.90;;;;;;4832272;29;89352;-35
2023/07/23 05:39:37;;;;;;;13.95;11.95;;;14.80;99.90;;;;;;4843072;29;90254;-35
2023/07/23 05:42:02;;;;;;;15.18;13.30;;;14.80;99.90;;;;;;4843984;29;90403;-48
2023/07/23 05:44:28;;;;;;;13.57;11.82;;;14.80;99.90;;;;;;4843408;29;90471;-37
2023/07/23 05:46:54;;;;;;;19.42;14.68;;;14.80;99.90;;;;;;4843511;29;89563;-43
2023/07/23 05:49:19;;;;;;;13.70;12.05;;;14.80;99.90;;;;;;4842864;29;90246;-33
2023/07/23 05:51:45;;;;;;;15.65;12.70;;;14.80;99.90;;;;;;4843624;29;90127;-32
2023/07/23 05:54:10;;;;;;;13.55;12.20;;;14.90;99.90;;;;;;4843364;29;89346;-39
2023/07/23 05:56:37;;;;;;;18.27;12.88;;;14.90;99.90;;;;;;4843485;29;88584;-35
2023/07/23 05:59:02;;;;;;;16.50;12.27;;;14.90;99.90;;;;;;4842822;29;90787;-39
2023/07/23 06:01:28;;;;;;;15.13;12.32;;;14.90;99.90;;;;;;4829251;29;89741;-38
2023/07/23 06:03:54;;;;;;;21.58;13.35;;;15.00;99.90;;;;;;4834701;29;90241;-38
2023/07/23 06:06:19;;;;;;;14.43;12.32;;;15.00;99.90;;;;;;4841343;29;88488;-37
2023/07/23 06:08:45;;;;;;;19.38;13.25;;;15.00;99.90;;;;;;4840769;29;90035;-37
2023/07/23 06:11:11;;;;;;;15.63;13.98;;;15.00;99.90;;;;;;4840747;29;89573;-42
2023/07/23 06:13:36;;;;;;;14.43;12.40;;;15.10;99.90;;;;;;4840923;29;89450;-35
2023/07/23 06:16:02;;;;;;;17.20;11.82;;;15.10;99.90;;;;;;4841017;29;89100;-35
2023/07/23 06:18:28;;;;;;;17.23;11.55;;;15.20;99.90;;;;;;4841798;29;90622;-34
2023/07/23 06:20:54;;;;;;;13.70;11.43;;;15.20;99.90;;;;;;4840674;28;89903;-42
2023/07/23 06:23:20;;;;;;;16.20;11.68;;;15.30;99.90;;;;;;4840897;29;89017;-38
2023/07/23 06:25:45;;;;;;;14.25;12.23;;;15.30;99.90;;;;;;4839470;29;88255;-38
2023/07/23 06:28:11;;;;;;;18.73;12.80;;;15.30;99.90;;;;;;4841220;28;90818;-34
2023/07/23 06:30:37;;;;;;;15.15;12.52;;;15.30;99.90;;;;;;4841080;29;90558;-35
2023/07/23 06:33:02;;;;;;;13.82;12.38;;;15.40;99.90;;;;;;4840377;29;90587;-40
2023/07/23 06:35:28;;;;;;;16.88;11.48;;;15.40;99.90;;;;;;4840335;29;90001;-35
2023/07/23 06:37:54;;;;;;;14.68;12.05;;;15.40;99.90;;;;;;4840212;29;90561;-41
2023/07/23 06:40:19;;;;;;;11.30;10.10;;;15.50;99.90;;;;;;4840658;29;90053;-35
2023/07/23 06:42:45;;;;;;;13.68;11.07;;;15.50;99.90;;;;;;4841291;29;89688;-34
2023/07/23 06:45:11;;;;;;;11.95;10.73;;;15.50;99.90;;;;;;4839987;28;88993;-40
2023/07/23 06:47:38;;;;;;;13.52;11.85;;;15.60;99.90;;;;;;4841425;29;90073;-32
2023/07/23 06:50:04;;;;;;;14.77;12.00;;;15.60;99.90;;;;;;4840458;28;88570;-34
2023/07/23 06:52:30;;;;;;;13.95;11.70;;;15.70;99.90;;;;;;4840561;28;88968;-36
2023/07/23 06:54:56;;;;;;;15.48;12.55;;;15.70;99.90;;;;;;4840872;29;89421;-39
2023/07/23 06:57:24;;;;;;;12.65;11.43;;;15.70;99.90;;;;;;4836923;29;91698;-35
2023/07/23 06:59:49;;;;;;;13.07;11.77;;;15.80;99.90;;;;;;4822647;29;89784;-35
2023/07/23 07:02:15;;;;;;;17.10;12.20;;;15.90;99.90;;;;;;4837192;29;88585;-38
2023/07/23 07:04:41;;;;;;;14.13;11.43;;;15.90;99.90;;;;;;4833633;29;89593;-35
2023/07/23 07:07:06;;;;;;;11.57;10.48;;;16.00;99.90;;;;;;4833082;29;91826;-39
2023/07/23 07:09:32;;;;;;;11.60;10.13;;;16.00;99.90;;;;;;4834285;29;89490;-36
2023/07/23 07:11:57;;;;;;;14.48;10.48;;;16.00;99.90;;;;;;4836041;29;89931;-41
2023/07/23 07:14:23;;;;;;;13.52;11.65;;;16.00;99.90;;;;;;4835486;29;89655;-34
2023/07/23 07:16:49;;;;;;;11.20;10.20;;;16.00;99.90;;;;;;4832447;29;89002;-38
2023/07/23 07:19:15;;;;;;;14.75;11.57;;;16.00;99.90;;;;;;4830911;29;90774;-37
2023/07/23 07:21:40;;;;;;;12.65;11.20;;;16.00;99.90;;;;;;4841549;29;90575;-32
2023/07/23 07:24:06;;;;;;;12.05;10.70;;;16.10;99.90;;;;;;4838422;29;89616;-40
2023/07/23 07:26:32;;;;;;;12.73;10.40;;;16.10;99.90;;;;;;4834228;29;90433;-40
2023/07/23 07:28:58;;;;;;;15.10;11.20;;;16.10;99.90;;;;;;4835915;29;89673;-34
2023/07/23 07:31:24;;;;;;;12.93;10.88;;;16.00;99.90;;;;;;4835872;29;89932;-33
2023/07/23 07:33:50;;;;;;;13.88;11.32;;;16.10;99.90;;;;;;4829790;29;89297;-43
2023/07/23 07:36:17;;;;;;;14.55;12.18;;;16.10;99.90;;;;;;4833566;29;90021;-35
2023/07/23 07:38:43;;;;;;;14.88;10.65;;;16.10;99.90;;;;;;4833915;29;89564;-40
2023/07/23 07:41:09;;;;;;;14.10;11.80;;;16.10;99.90;;;;;;4834277;29;88548;-33
2023/07/23 07:43:35;;;;;;;13.82;10.40;;;16.20;99.90;;;;;;4833882;29;89343;-39
2023/07/23 07:46:03;;;;;;;12.95;11.02;;;16.10;99.90;;;;;;4840544;29;88945;-43
2023/07/23 07:48:29;;;;;;;16.65;10.48;;;16.20;99.90;;;;;;4841658;28;89042;-33
2023/07/23 07:51:03;;;;;;;13.40;11.32;;;16.20;99.90;;;;;;4839193;29;91210;-36
2023/07/23 07:53:31;;;;;;;13.80;10.85;;;16.10;99.90;;;;;;4840034;28;88947;-42
2023/07/23 07:55:57;;;;;;;14.43;11.75;;;16.10;99.90;;;;;;4842096;28;89070;-36
2023/07/23 07:58:27;;;;;;;12.50;10.85;;;16.10;99.90;;;;;;4839486;29;89242;-33
2023/07/23 08:00:59;;;;;;;14.25;11.05;;;16.00;99.90;;;;;;4842259;28;90152;-37
2023/07/23 08:03:27;;;;;;;11.77;10.57;;;16.00;99.90;;;;;;4842562;28;88545;-36
2023/07/23 08:05:55;;;;;;;15.17;11.13;;;16.00;99.90;;;;;;4828779;29;90456;-37
2023/07/23 08:08:25;;;;;;;14.23;11.60;;;16.10;99.90;;;;;;4902616;23;89517;-45
2023/07/23 08:10:52;;;;;;;12.77;10.50;;;16.00;99.90;;;;;;4899887;28;90302;-37
2023/07/23 08:13:19;;;;;;;18.65;11.45;;;16.10;99.90;;;;;;4900373;28;89229;-34
2023/07/23 08:15:45;;;;;;;12.40;10.50;;;15.90;99.90;;;;;;4899403;28;90725;-33
2023/07/23 08:18:11;;;;;;;13.65;10.95;;;16.00;99.90;;;;;;4899775;28;89966;-43
2023/07/23 08:20:37;;;;;;;14.98;10.80;;;16.00;99.90;;;;;;4898593;28;91279;-37
2023/07/23 08:23:03;;;;;;;12.45;10.05;;;15.90;99.90;;;;;;4899140;28;87879;-40
2023/07/23 08:25:29;;;;;;;16.52;10.77;;;15.80;99.90;;;;;;4900316;28;90088;-33
2023/07/23 08:28:01;;;;;;;11.32;10.18;;;15.80;99.90;;;;;;4899070;28;89754;-39
2023/07/23 08:30:30;;;;;;;14.25;9.48;;;15.90;99.90;;;;;;4899463;28;89888;-41
2023/07/23 08:32:59;;;;;;;12.88;8.90;;;15.80;99.90;;;;;;4899536;28;89817;-36
2023/07/23 08:35:25;;;;;;;;;;;15.80;99.90;;;;;;4899594;28;90453;-36
2023/07/23 08:37:51;;;;;;;12.30;9.27;;;15.80;99.90;;;;;;4901305;28;89531;-41
2023/07/23 08:40:18;;;;;;;12.10;9.02;;;15.70;99.90;;;;;;4899636;28;89977;-32
2023/07/23 08:42:56;;;;;;;13.10;10.13;;;15.70;99.90;;;;;;4900944;28;89067;-39
2023/07/23 08:45:46;;;;;;;11.98;9.82;;;15.80;99.90;;;;;;4896446;28;90590;-33
2023/07/23 08:48:20;;;;;;;11.98;9.20;;;15.80;99.90;;;;;;4898130;28;89237;-36
2023/07/23 08:50:47;;;;;;;12.50;9.95;;;15.90;99.90;;;;;;4899972;28;89435;-35
2023/07/23 08:53:14;;;;;;;11.20;8.98;;;15.80;99.90;;;;;;4896485;28;88840;-32
2023/07/23 08:55:45;;;;;;;11.10;9.57;;;15.80;99.90;;;;;;4899337;28;90731;-40
2023/07/23 08:58:19;;;;;;;12.60;9.02;;;15.90;99.90;;;;;;4899049;28;90415;-37
2023/07/23 09:00:46;;;;;;;10.30;8.73;;;15.80;99.90;;;;;;4899760;28;91277;-37
2023/07/23 09:03:14;;;;;;;10.63;8.77;;;15.80;99.90;;;;;;4900581;28;88311;-41
2023/07/23 09:05:40;;;;;;;12.20;9.20;;;15.80;99.90;;;;;;4899960;28;90059;-40
2023/07/23 09:08:06;;;;;;;11.15;9.30;;;15.90;99.90;;;;;;4899197;28;90297;-34
2023/07/23 09:10:32;;;;;;;9.68;8.52;;;15.90;99.90;;;;;;4900008;28;89453;-36
2023/07/23 09:12:57;;;;;;;10.63;8.45;;;15.80;99.90;;;;;;4899865;28;88557;-36
2023/07/23 09:15:23;;;;;;;10.05;7.95;;;15.80;99.90;;;;;;4889625;28;90101;-34
2023/07/23 09:17:49;;;;;;;11.73;9.20;;;15.90;99.90;;;;;;4898812;28;89843;-33
2023/07/23 09:20:18;;;;;;;22.33;10.48;;;15.90;99.90;;;;;;4898989;28;89600;-36
2023/07/23 09:22:44;;;;;;;11.13;9.73;;;15.90;99.90;;;;;;4898600;28;88538;-37
2023/07/23 09:25:10;;;;;;;10.52;8.85;;;15.90;99.90;;;;;;4899645;28;90787;-35
2023/07/23 09:27:42;;;;;;;11.38;9.63;;;15.90;99.90;;;;;;4898950;28;89817;-35
2023/07/23 09:30:15;;;;;;;9.30;8.20;;;15.80;99.90;;;;;;4899773;28;90707;-33
2023/07/23 09:32:41;;;;;;;10.88;8.77;;;15.90;99.90;;;;;;4900101;28;90011;-33
2023/07/23 09:35:07;;;;;;;10.27;7.97;;;15.80;99.90;;;;;;4897619;28;91154;-39
2023/07/23 09:37:33;;;;;;;11.50;9.77;;;15.90;99.90;;;;;;4899524;28;89680;-48
2023/07/23 09:39:59;;;;;;;9.48;7.97;;;15.90;99.90;;;;;;4899602;28;89490;-40
2023/07/23 09:42:25;;;;;;;7.85;7.10;;;15.90;99.90;;;;;;4899318;28;88775;-36
2023/07/23 09:44:51;;;;;;;10.55;7.97;;;15.90;99.90;;;;;;4899808;28;90496;-45
2023/07/23 09:47:24;;;;;;;11.93;8.98;;;15.90;99.90;;;;;;4898660;28;91756;-33
2023/07/23 09:49:53;;;;;;;10.57;8.90;;;16.00;99.90;;;;;;4898810;28;90092;-44
2023/07/23 09:52:23;;;;;;;10.25;8.57;;;15.90;99.90;;;;;;4899582;28;89205;-33
2023/07/23 09:54:51;;;;;;;9.82;8.82;;;15.90;99.90;;;;;;4892481;28;91490;-44
2023/07/23 09:57:19;;;;;;;10.10;9.05;;;15.90;99.90;;;;;;4899516;28;88713;-35
2023/07/23 09:59:46;;;;;;;9.00;8.18;;;15.90;99.90;;;;;;4899270;28;89850;-33
2023/07/23 10:02:15;;;;;;;9.50;7.32;;;15.90;99.90;;;;;;4898459;28;89472;-42
2023/07/23 10:04:41;;;;;;;8.88;7.97;;;15.90;99.90;;;;;;4899063;28;89962;-34
2023/07/23 10:07:07;;;;;;;9.75;7.70;;;15.90;99.90;;;;;;4898795;28;89687;-39
2023/07/23 10:09:33;;;;;;;9.95;8.95;;;15.90;99.90;;;;;;4898608;28;90190;-37
2023/07/23 10:11:59;;;;;;;8.70;7.13;;;15.90;99.90;;;;;;4898030;28;89676;-47
2023/07/23 10:14:24;;;;;;;9.07;7.55;;;16.00;99.90;;;;;;4899066;28;89368;-35
2023/07/23 10:16:52;;;;;;;9.80;7.90;;;16.00;99.90;;;;;;4898596;28;88258;-33
2023/07/23 10:19:20;;;;;;;7.60;6.67;;;16.00;99.90;;;;;;4898988;28;89636;-33
2023/07/23 10:21:51;;;;;;;6.95;6.25;;;16.00;99.90;;;;;;4898563;28;90608;-38
2023/07/23 10:24:17;;;;;;;6.95;6.25;;;16.00;99.90;;;;;;4899067;28;89348;-36
2023/07/23 10:26:47;;;;;;;6.10;5.30;;;16.10;99.90;;;;;;4899030;28;90262;-33
2023/07/23 10:29:18;;;;;;;7.15;6.28;;;16.10;99.90;;;;;;4897842;28;90334;-37
2023/07/23 10:31:44;;;;;;;7.15;6.32;;;16.10;99.90;;;;;;4899029;28;89138;-44
2023/07/23 10:34:22;;;;;;;8.50;6.28;;;16.10;99.90;;;;;;4898347;28;90427;-36
2023/07/23 10:37:18;;;;;;;6.63;5.97;;;16.10;99.90;;;;;;4898090;28;90754;-38
2023/07/23 10:39:46;;;;;;;7.03;6.20;;;16.10;99.90;;;;;;4897076;28;90542;-35
2023/07/23 10:42:34;;;;;;;8.87;6.20;;;16.10;99.90;;;;;;4898814;28;90367;-46
2023/07/23 10:45:24;;;;;;;9.10;6.05;;;16.10;99.90;;;;;;4890346;28;91506;-39
2023/07/23 10:47:57;;;;;;;9.98;6.85;;;16.10;99.90;;;;;;4897891;28;89433;-42
2023/07/23 10:50:24;;;;;;;6.72;6.13;;;16.20;99.90;;;;;;4897814;28;91421;-34
2023/07/23 10:52:52;;;;;;;11.75;6.22;;;16.20;99.90;;;;;;4898290;28;88901;-33
2023/07/23 10:55:40;;;;;;;6.95;6.22;;;16.20;99.90;;;;;;4897950;28;89854;-37
2023/07/23 10:58:14;;;;;;;8.60;7.70;;;16.20;99.90;;;;;;4890586;28;89128;-41
2023/07/23 11:00:54;;;;;;;9.32;6.80;;;16.20;99.90;;;;;;4892683;28;90350;-36
2023/07/23 11:03:21;;;;;;;7.60;6.78;;;16.20;99.90;;;;;;4898332;28;88779;-38
2023/07/23 11:05:47;;;;;;;9.57;7.33;;;16.20;99.90;;;;;;4898426;28;90197;-39
2023/07/23 11:08:24;;;;;;;11.13;7.32;;;16.30;99.90;;;;;;4897869;28;89834;-42
2023/07/23 11:10:55;;;;;;;9.18;7.70;;;16.30;99.90;;;;;;4887216;28;89162;-33
2023/07/23 11:13:23;;;;;;;8.30;6.65;;;16.30;99.90;;;;;;4896976;28;89195;-35
2023/07/23 11:15:49;;;;;;;8.85;7.38;;;16.30;99.90;;;;;;4898841;28;90232;-35
2023/07/23 11:18:14;;;;;;;9.48;7.55;;;16.30;99.90;;;;;;4897545;28;89556;-40
2023/07/23 11:20:48;;;;;;;9.57;7.95;;;16.30;99.90;;;;;;4898264;28;90387;-38
2023/07/23 11:23:16;;;;;;;7.00;6.30;;;16.30;99.90;;;;;;4897643;28;89190;-35
2023/07/23 11:25:52;;;;;;;8.63;6.82;;;16.30;99.90;;;;;;4897948;28;89229;-36
2023/07/23 11:28:22;;;;;;;7.35;6.75;;;16.30;99.90;;;;;;4897495;28;91073;-34
2023/07/23 11:30:52;;;;;;;9.95;7.40;;;16.40;99.90;;;;;;4898670;28;91092;-45
2023/07/23 11:33:20;;;;;;;8.35;7.20;;;16.30;99.90;;;;;;4897794;28;89599;-33
2023/07/23 11:35:45;;;;;;;8.15;7.30;;;16.30;99.90;;;;;;4898093;28;90109;-32
2023/07/23 11:38:11;;;;;;;8.70;7.55;;;16.30;99.90;;;;;;4897212;28;90002;-40
2023/07/23 11:40:37;;;;;;;8.80;7.18;;;16.30;99.90;;;;;;4898425;28;89831;-36
2023/07/23 11:43:07;;;;;;;10.70;8.07;;;16.40;99.90;;;;;;4898729;28;90273;-40
2023/07/23 11:45:42;;;;;;;8.80;7.20;;;16.40;99.90;;;;;;4897909;28;91698;-35
2023/07/23 11:48:14;;;;;;;8.05;7.15;;;16.50;99.90;;;;;;4896563;28;88685;-38
2023/07/23 11:50:40;;;;;;;11.05;7.95;;;16.50;99.90;;;;;;4897934;28;89465;-38
2023/07/23 11:53:05;;;;;;;8.18;7.28;;;16.50;99.90;;;;;;4897424;28;89061;-35
2023/07/23 11:55:32;;;;;;;9.13;7.28;;;16.50;99.90;;;;;;4898181;28;90857;-40
2023/07/23 11:57:59;;;;;;;8.85;7.63;;;16.50;99.90;;;;;;4899966;28;89758;-38
2023/07/23 12:00:26;;;;;;;10.55;7.82;;;16.50;99.90;;;;;;4899580;28;89318;-36
2023/07/23 12:02:52;;;;;;;9.10;7.50;;;16.50;99.90;;;;;;4900884;28;88520;-38
2023/07/23 12:05:18;;;;;;;8.98;6.95;;;16.50;99.90;;;;;;4899807;28;89535;-34
2023/07/23 12:07:44;;;;;;;10.50;7.25;;;16.60;99.90;;;;;;4900777;28;88655;-41
2023/07/23 12:10:15;;;;;;;8.23;7.10;;;16.60;99.90;;;;;;4899307;28;90333;-39
2023/07/23 12:12:48;;;;;;;8.13;7.30;;;16.60;99.90;;;;;;4901352;28;88007;-34
2023/07/23 12:15:15;;;;;;;7.90;7.10;;;16.60;99.90;;;;;;4899120;28;89919;-45
2023/07/23 12:17:42;;;;;;;8.20;7.32;;;16.60;99.90;;;;;;4900610;28;90810;-32
2023/07/23 12:20:11;;;;;;;7.63;6.88;;;16.60;99.90;;;;;;4899718;28;90100;-39
2023/07/23 12:23:00;;;;;;;6.90;5.57;;;16.60;99.90;;;;;;4900849;28;90607;-37
2023/07/23 12:25:26;;;;;;;6.78;5.50;;;16.70;99.90;;;;;;4889757;28;89169;-37
2023/07/23 12:27:51;;;;;;;7.30;6.57;;;16.70;99.90;;;;;;4898591;28;89607;-40
2023/07/23 12:30:17;;;;;;;8.02;6.80;;;16.70;99.90;;;;;;4899401;28;89008;-34
2023/07/23 12:32:47;;;;;;;6.82;5.90;;;16.70;99.90;;;;;;4900163;28;89077;-36
2023/07/23 12:35:14;;;;;;;6.18;5.55;;;16.70;99.90;;;;;;4899536;28;91679;-33